Time;durP1;ratioP1;P1;durP2;ratioP2;P2;SDS_P1;SDS_P2;PMS_P1;PMS_P2;Temp;Humidity;BMP_temperature;BMP_pressure;BME280_temperature;BME280_humidity;BME280_pressure;Samples;Min_cycle;Max_cycle;Signal;HPM_P1;HPM_P2
2024/01/08 00:00:35;;;;;;;10.97;9.17;;;;;;;;;;2613379;54;20381;-78
2024/01/08 00:06:04;;;;;;;10.93;9.83;;;;;;;;;;2614438;39;20789;-77
2024/01/08 00:08:49;;;;;;;10.70;9.60;;;;;;;;;;2614305;54;20410;-75
2024/01/08 00:11:15;;;;;;;9.50;6.77;;;;;;;;;;2611898;47;20967;-73
2024/01/08 00:16:45;;;;;;;9.87;8.93;;;;;;;;;;2612729;54;20373;-73
2024/01/08 00:22:14;;;;;;;12.97;8.50;;;;;;;;;;2612633;54;21154;-74
2024/01/08 00:33:51;;;;;;;11.57;8.90;;;;;;;;;;2613708;54;20384;-76
2024/01/08 00:39:21;;;;;;;8.00;7.30;;;;;;;;;;2614269;54;20371;-75
2024/01/08 00:44:51;;;;;;;8.17;6.83;;;;;;;;;;2614755;54;20955;-74
2024/01/08 00:50:20;;;;;;;7.77;7.10;;;;;;;;;;2614061;54;20598;-74
2024/01/08 00:55:50;;;;;;;11.03;7.93;;;;;;;;;;2612774;54;20483;-75
2024/01/08 01:01:20;;;;;;;8.50;7.80;;;;;;;;;;2613726;54;20373;-76
2024/01/08 01:06:50;;;;;;;9.33;8.43;;;;;;;;;;2614512;54;20377;-75
2024/01/08 01:12:20;;;;;;;9.47;8.67;;;;;;;;;;2613612;54;20987;-75
2024/01/08 01:17:49;;;;;;;8.93;7.90;;;;;;;;;;2614516;54;20399;-74
2024/01/08 01:23:19;;;;;;;10.03;7.87;;;;;;;;;;2613919;39;20736;-76
2024/01/08 01:32:20;;;;;;;8.00;7.43;;;;;;;;;;2613950;54;20406;-75
2024/01/08 01:37:50;;;;;;;10.50;9.40;;;;;;;;;;2614603;39;20773;-75
2024/01/08 01:43:21;;;;;;;7.87;6.90;;;;;;;;;;2613575;54;20890;-75
2024/01/08 01:48:51;;;;;;;9.00;8.07;;;;;;;;;;2613717;54;20408;-75
2024/01/08 01:54:22;;;;;;;8.57;7.50;;;;;;;;;;2613608;54;20398;-75
2024/01/08 01:59:52;;;;;;;10.77;7.73;;;;;;;;;;2613691;54;20407;-75
2024/01/08 02:05:21;;;;;;;10.10;7.60;;;;;;;;;;2613846;54;20378;-75
2024/01/08 02:10:51;;;;;;;9.43;8.60;;;;;;;;;;2614089;54;20495;-75
2024/01/08 02:16:21;;;;;;;11.40;8.73;;;;;;;;;;2614687;39;20804;-75
2024/01/08 02:21:51;;;;;;;11.30;7.47;;;;;;;;;;2613824;54;20438;-74
2024/01/08 02:27:20;;;;;;;10.80;8.83;;;;;;;;;;2613175;54;20378;-75
2024/01/08 02:32:50;;;;;;;8.40;7.53;;;;;;;;;;2613645;54;20398;-75
2024/01/08 02:38:20;;;;;;;9.03;7.07;;;;;;;;;;2613891;54;20422;-73
2024/01/08 02:43:49;;;;;;;11.20;9.37;;;;;;;;;;2613076;54;20334;-74
2024/01/08 02:49:19;;;;;;;10.63;9.57;;;;;;;;;;2613323;54;20497;-75
2024/01/08 02:54:49;;;;;;;12.83;9.20;;;;;;;;;;2614363;54;20896;-80
2024/01/08 03:00:20;;;;;;;12.00;9.27;;;;;;;;;;2613222;54;20506;-78
2024/01/08 03:05:50;;;;;;;7.63;6.47;;;;;;;;;;2614171;54;20338;-78
2024/01/08 03:11:19;;;;;;;11.47;9.23;;;;;;;;;;2613870;54;20350;-79
2024/01/08 03:16:49;;;;;;;11.53;9.13;;;;;;;;;;2613642;54;20381;-78
2024/01/08 03:22:18;;;;;;;9.57;8.57;;;;;;;;;;2613556;54;20473;-78
2024/01/08 03:27:48;;;;;;;10.40;8.77;;;;;;;;;;2614581;54;20449;-79
2024/01/08 03:33:18;;;;;;;9.87;8.17;;;;;;;;;;2614911;54;20403;-74
2024/01/08 03:38:47;;;;;;;10.93;8.33;;;;;;;;;;2614892;54;20389;-75
2024/01/08 03:44:17;;;;;;;12.00;8.90;;;;;;;;;;2615234;54;20483;-75
2024/01/08 03:49:47;;;;;;;13.47;10.67;;;;;;;;;;2611740;54;20412;-75
2024/01/08 03:55:16;;;;;;;10.27;8.70;;;;;;;;;;2614840;54;20414;-76
2024/01/08 04:00:46;;;;;;;11.10;9.27;;;;;;;;;;2614856;54;20354;-78
2024/01/08 04:06:16;;;;;;;12.60;9.03;;;;;;;;;;2614718;54;23487;-78
2024/01/08 04:11:46;;;;;;;11.20;9.27;;;;;;;;;;2614215;54;20359;-78
2024/01/08 04:17:15;;;;;;;14.70;10.10;;;;;;;;;;2614785;54;20398;-81
2024/01/08 04:22:45;;;;;;;13.10;9.90;;;;;;;;;;2614085;54;20485;-78
2024/01/08 04:34:22;;;;;;;13.27;9.07;;;;;;;;;;2615087;54;20450;-79
2024/01/08 04:39:52;;;;;;;12.97;10.63;;;;;;;;;;2614760;39;20806;-79
2024/01/08 04:45:21;;;;;;;11.40;10.20;;;;;;;;;;2613545;54;20364;-79
2024/01/08 04:50:51;;;;;;;10.03;9.03;;;;;;;;;;2613987;54;20440;-77
2024/01/08 04:56:22;;;;;;;13.97;10.77;;;;;;;;;;2614004;54;20482;-78
2024/01/08 05:01:52;;;;;;;17.13;12.37;;;;;;;;;;2614289;54;20342;-75
2024/01/08 05:07:22;;;;;;;11.50;10.30;;;;;;;;;;2615352;54;20436;-75
2024/01/08 05:12:51;;;;;;;17.33;10.20;;;;;;;;;;2613974;54;20338;-75
2024/01/08 05:18:21;;;;;;;12.67;10.23;;;;;;;;;;2614657;54;20429;-78
2024/01/08 05:23:51;;;;;;;11.57;10.37;;;;;;;;;;2614443;54;20942;-78
2024/01/08 05:32:56;;;;;;;22.53;11.70;;;;;;;;;;2613938;54;20402;-75
2024/01/08 05:38:25;;;;;;;15.50;10.13;;;;;;;;;;2613746;54;20525;-76
2024/01/08 05:43:55;;;;;;;14.23;11.13;;;;;;;;;;2614596;54;20375;-75
2024/01/08 05:49:25;;;;;;;22.40;11.93;;;;;;;;;;2614672;54;20462;-75
2024/01/08 05:54:55;;;;;;;16.37;11.27;;;;;;;;;;2614210;54;20356;-74
2024/01/08 06:00:25;;;;;;;15.23;11.97;;;;;;;;;;2612815;54;20425;-75
2024/01/08 06:05:55;;;;;;;15.90;12.03;;;;;;;;;;2613926;54;20379;-74
2024/01/08 06:08:40;;;;;;;15.20;11.93;;;;;;;;;;2612792;47;20510;-75
2024/01/08 06:11:09;;;;;;;15.50;12.10;;;;;;;;;;2613866;54;20387;-74
2024/01/08 06:16:39;;;;;;;12.97;11.50;;;;;;;;;;2613265;54;20455;-75
2024/01/08 06:22:08;;;;;;;14.77;11.43;;;;;;;;;;2613546;54;21035;-75
2024/01/08 06:27:38;;;;;;;14.80;11.50;;;;;;;;;;2613599;54;20413;-76
2024/01/08 06:36:39;;;;;;;11.70;9.87;;;;;;;;;;2614490;54;20527;-76
2024/01/08 06:42:09;;;;;;;14.20;10.23;;;;;;;;;;2613262;54;20381;-75
2024/01/08 06:47:38;;;;;;;10.77;9.67;;;;;;;;;;2613893;54;20342;-74
2024/01/08 06:53:08;;;;;;;9.67;8.23;;;;;;;;;;2613640;54;20387;-76
2024/01/08 06:58:38;;;;;;;9.77;8.77;;;;;;;;;;2612337;54;20358;-79
2024/01/08 07:04:08;;;;;;;10.93;9.90;;;;;;;;;;2614501;54;20948;-78
2024/01/08 07:09:37;;;;;;;12.00;9.60;;;;;;;;;;2613127;54;20383;-78
2024/01/08 07:15:09;;;;;;;11.00;9.97;;;;;;;;;;2609686;54;20403;-79
2024/01/08 07:20:38;;;;;;;12.73;9.83;;;;;;;;;;2613923;54;20383;-77
2024/01/08 07:26:08;;;;;;;11.90;10.70;;;;;;;;;;2613909;54;20338;-75
2024/01/08 07:31:38;;;;;;;10.37;9.30;;;;;;;;;;2613077;54;20413;-75
2024/01/08 07:37:07;;;;;;;11.00;8.77;;;;;;;;;;2614000;54;20495;-75
2024/01/08 07:42:37;;;;;;;8.80;7.87;;;;;;;;;;2614013;54;20365;-77
2024/01/08 07:48:07;;;;;;;18.17;10.77;;;;;;;;;;2613650;54;20390;-78
2024/01/08 07:53:37;;;;;;;11.10;9.77;;;;;;;;;;2613552;54;20386;-75
2024/01/08 07:59:06;;;;;;;11.23;10.13;;;;;;;;;;2613180;54;20410;-76
2024/01/08 08:04:36;;;;;;;10.97;8.93;;;;;;;;;;2613535;54;20410;-75
2024/01/08 08:10:06;;;;;;;13.53;9.50;;;;;;;;;;2613287;54;20370;-74
2024/01/08 08:15:37;;;;;;;14.40;9.73;;;;;;;;;;2612249;54;21385;-74
2024/01/08 08:21:07;;;;;;;15.03;9.97;;;;;;;;;;2612482;54;20395;-74
2024/01/08 08:26:37;;;;;;;9.87;8.77;;;;;;;;;;2612583;54;20366;-74
2024/01/08 08:32:06;;;;;;;12.10;9.80;;;;;;;;;;2612716;54;20385;-75
2024/01/08 08:41:14;;;;;;;12.33;10.43;;;;;;;;;;2613619;54;20402;-75
2024/01/08 08:46:44;;;;;;;9.70;8.70;;;;;;;;;;2613713;39;21099;-76
2024/01/08 08:52:14;;;;;;;8.87;8.03;;;;;;;;;;2612796;54;20390;-76
2024/01/08 08:57:44;;;;;;;14.70;10.80;;;;;;;;;;2614057;54;20362;-75
2024/01/08 09:03:13;;;;;;;10.07;8.93;;;;;;;;;;2613720;54;20396;-74
2024/01/08 09:08:44;;;;;;;9.10;8.20;;;;;;;;;;2613240;54;20383;-76
2024/01/08 09:14:14;;;;;;;9.40;7.43;;;;;;;;;;2613694;54;20379;-76
2024/01/08 09:19:43;;;;;;;9.83;7.70;;;;;;;;;;2613974;54;20399;-76
2024/01/08 09:25:13;;;;;;;8.77;7.97;;;;;;;;;;2613685;54;20942;-75
2024/01/08 09:30:43;;;;;;;11.03;8.20;;;;;;;;;;2613386;39;20768;-76
2024/01/08 09:36:13;;;;;;;9.67;8.80;;;;;;;;;;2613880;54;20443;-76
2024/01/08 09:41:45;;;;;;;9.97;9.30;;;;;;;;;;2613435;54;20421;-75
2024/01/08 09:47:16;;;;;;;8.33;7.70;;;;;;;;;;2611812;54;20406;-75
2024/01/08 09:52:46;;;;;;;8.93;8.33;;;;;;;;;;2613247;54;20380;-75
2024/01/08 09:58:15;;;;;;;9.53;8.77;;;;;;;;;;2611423;54;20366;-76
2024/01/08 10:03:46;;;;;;;9.30;8.80;;;;;;;;;;2613287;54;20377;-73
2024/01/08 10:09:16;;;;;;;10.40;9.60;;;;;;;;;;2614185;54;20387;-73
2024/01/08 10:14:46;;;;;;;10.20;9.40;;;;;;;;;;2613525;54;20382;-77
2024/01/08 10:20:16;;;;;;;9.17;8.50;;;;;;;;;;2613061;54;20362;-76
2024/01/08 10:25:52;;;;;;;9.97;9.37;;;;;;;;;;2613771;54;20338;-77
2024/01/08 10:31:22;;;;;;;12.30;10.60;;;;;;;;;;2612855;54;20391;-74
2024/01/08 10:36:53;;;;;;;10.00;9.30;;;;;;;;;;2613062;54;20375;-75
2024/01/08 10:51:54;;;;;;;11.27;10.47;;;;;;;;;;2610724;54;20391;-75
2024/01/08 10:57:28;;;;;;;12.27;11.27;;;;;;;;;;2609763;54;20378;-76
2024/01/08 11:02:58;;;;;;;10.30;9.70;;;;;;;;;;2613423;54;20514;-78
2024/01/08 11:08:29;;;;;;;12.13;11.33;;;;;;;;;;2611744;54;20385;-74
2024/01/08 11:13:58;;;;;;;11.50;10.87;;;;;;;;;;2612371;31;20958;-75
2024/01/08 11:19:27;;;;;;;10.90;10.00;;;;;;;;;;2612125;54;20403;-75
2024/01/08 11:24:58;;;;;;;14.60;10.40;;;;;;;;;;2612408;54;20365;-74
2024/01/08 11:30:28;;;;;;;11.13;10.40;;;;;;;;;;2613332;39;20751;-75
2024/01/08 11:35:59;;;;;;;9.97;9.30;;;;;;;;;;2612592;54;20358;-75
2024/01/08 11:41:29;;;;;;;9.57;8.97;;;;;;;;;;2613516;54;20995;-77
2024/01/08 11:46:59;;;;;;;10.20;9.47;;;;;;;;;;2613482;54;20526;-78
2024/01/08 11:52:30;;;;;;;11.17;10.27;;;;;;;;;;2613753;54;20416;-79
2024/01/08 11:58:00;;;;;;;9.47;8.77;;;;;;;;;;2612688;54;20379;-80
2024/01/08 12:03:30;;;;;;;10.73;10.03;;;;;;;;;;2614311;54;20414;-78
2024/01/08 12:08:59;;;;;;;11.23;10.63;;;;;;;;;;2613505;54;20415;-76
2024/01/08 12:11:44;;;;;;;10.60;9.47;;;;;;;;;;2614714;54;20439;-74
2024/01/08 12:14:11;;;;;;;10.03;9.33;;;;;;;;;;2614930;54;20398;-74
2024/01/08 12:19:43;;;;;;;10.33;9.53;;;;;;;;;;2614932;39;20746;-74
2024/01/08 12:25:12;;;;;;;11.90;11.10;;;;;;;;;;2613383;54;20422;-75
2024/01/08 12:30:43;;;;;;;13.23;11.70;;;;;;;;;;2613388;54;20363;-74
2024/01/08 12:36:13;;;;;;;11.43;10.73;;;;;;;;;;2613099;39;21492;-76
2024/01/08 12:47:50;;;;;;;11.20;10.50;;;;;;;;;;2614607;54;20406;-75
2024/01/08 12:53:20;;;;;;;12.33;11.40;;;;;;;;;;2613651;54;20369;-74
2024/01/08 12:58:50;;;;;;;10.67;10.00;;;;;;;;;;2613096;54;20338;-75
2024/01/08 13:04:20;;;;;;;10.47;9.87;;;;;;;;;;2614406;54;20430;-74
2024/01/08 13:09:50;;;;;;;11.60;10.73;;;;;;;;;;2614758;54;20529;-75
2024/01/08 13:15:19;;;;;;;10.97;10.37;;;;;;;;;;2614354;54;20358;-76
2024/01/08 13:20:49;;;;;;;11.37;10.50;;;;;;;;;;2613740;54;20370;-77
2024/01/08 13:26:19;;;;;;;10.80;10.13;;;;;;;;;;2612938;54;20386;-76
2024/01/08 13:31:49;;;;;;;11.23;10.33;;;;;;;;;;2613444;39;20745;-73
2024/01/08 13:37:20;;;;;;;10.57;9.83;;;;;;;;;;2613220;54;20470;-73
2024/01/08 13:39:52;;;;;;;11.20;10.30;;;;;;;;;;2611557;54;20420;-75
2024/01/08 13:42:19;;;;;;;10.83;10.10;;;;;;;;;;2612104;54;21009;-74
2024/01/08 13:47:49;;;;;;;11.10;10.40;;;;;;;;;;2615297;54;20453;-74
2024/01/08 13:53:19;;;;;;;9.87;9.37;;;;;;;;;;2614351;54;20440;-75
2024/01/08 13:58:49;;;;;;;11.03;10.43;;;;;;;;;;2613508;31;20938;-77
2024/01/08 14:04:19;;;;;;;10.43;9.83;;;;;;;;;;2612636;54;20391;-74
2024/01/08 14:09:49;;;;;;;11.67;10.77;;;;;;;;;;2613687;31;20837;-76
2024/01/08 14:15:19;;;;;;;12.57;11.77;;;;;;;;;;2612748;54;20395;-74
2024/01/08 14:20:49;;;;;;;12.23;11.52;;;;;;;;;;2613190;54;20388;-75
2024/01/08 14:26:18;;;;;;;11.30;10.50;;;;;;;;;;2611757;54;20514;-76
2024/01/08 14:31:48;;;;;;;11.67;10.97;;;;;;;;;;2612653;54;20521;-75
2024/01/08 14:37:18;;;;;;;11.90;11.10;;;;;;;;;;2613293;54;20436;-74
2024/01/08 14:46:21;;;;;;;11.63;10.63;;;;;;;;;;2612800;54;20411;-76
2024/01/08 14:51:50;;;;;;;9.80;9.20;;;;;;;;;;2613416;39;20740;-75
2024/01/08 14:57:20;;;;;;;10.73;9.87;;;;;;;;;;2613124;54;20391;-76
2024/01/08 15:02:50;;;;;;;11.30;10.60;;;;;;;;;;2613283;54;20928;-75
2024/01/08 15:08:20;;;;;;;11.67;10.73;;;;;;;;;;2612800;54;20387;-77
2024/01/08 15:13:50;;;;;;;11.23;10.40;;;;;;;;;;2612141;54;20390;-74
2024/01/08 15:19:19;;;;;;;13.40;12.13;;;;;;;;;;2612797;54;20442;-75
2024/01/08 15:24:55;;;;;;;11.77;11.10;;;;;;;;;;2612583;54;20126;-78
2024/01/08 15:30:24;;;;;;;11.30;10.60;;;;;;;;;;2612928;54;20432;-79
2024/01/08 15:35:57;;;;;;;10.50;9.80;;;;;;;;;;2614312;39;20858;-79
2024/01/08 15:41:26;;;;;;;10.93;10.23;;;;;;;;;;2612635;54;20495;-79
2024/01/08 15:46:56;;;;;;;12.20;11.17;;;;;;;;;;2612867;39;20785;-75
2024/01/08 15:52:28;;;;;;;15.33;14.00;;;;;;;;;;2611931;54;20391;-76
2024/01/08 15:57:59;;;;;;;11.50;10.63;;;;;;;;;;2613140;54;20397;-77
2024/01/08 16:01:03;;;;;;;11.13;10.43;;;;;;;;;;2613619;54;20371;-75
2024/01/08 16:03:29;;;;;;;11.55;10.75;;;;;;;;;;2612318;54;20422;-78
2024/01/08 16:08:59;;;;;;;13.37;12.37;;;;;;;;;;2613504;54;20147;-79
2024/01/08 16:14:28;;;;;;;11.57;10.77;;;;;;;;;;2612401;54;20382;-80
2024/01/08 16:19:58;;;;;;;12.30;11.50;;;;;;;;;;2613113;54;20410;-79
2024/01/08 16:25:28;;;;;;;13.70;12.70;;;;;;;;;;2613013;54;20373;-79
2024/01/08 16:30:57;;;;;;;12.80;12.00;;;;;;;;;;2613170;54;20413;-79
2024/01/08 16:36:27;;;;;;;12.50;11.70;;;;;;;;;;2614177;39;20400;-75
2024/01/08 16:48:04;;;;;;;11.07;10.27;;;;;;;;;;2612591;54;20366;-80
2024/01/08 16:53:34;;;;;;;14.00;12.80;;;;;;;;;;2611883;54;20549;-79
2024/01/08 16:59:03;;;;;;;12.87;11.87;;;;;;;;;;2613568;54;20377;-79
2024/01/08 17:04:33;;;;;;;11.37;10.50;;;;;;;;;;2611914;54;20393;-80
2024/01/08 17:10:03;;;;;;;10.33;9.83;;;;;;;;;;2612811;54;20395;-80
2024/01/08 17:15:33;;;;;;;10.80;10.00;;;;;;;;;;2612523;54;20710;-78
2024/01/08 17:21:03;;;;;;;13.60;12.37;;;;;;;;;;2609913;54;21328;-77
2024/01/08 17:26:33;;;;;;;14.07;13.05;;;;;;;;;;2611150;54;20398;-78
2024/01/08 17:32:02;;;;;;;12.30;11.30;;;;;;;;;;2610754;39;20861;-79
2024/01/08 17:37:33;;;;;;;14.20;13.13;;;;;;;;;;2613800;54;20398;-79
2024/01/08 17:52:04;;;;;;;13.37;12.40;;;;;;;;;;2610938;54;20401;-79
2024/01/08 17:57:34;;;;;;;13.30;12.40;;;;;;;;;;2611097;54;20342;-79
2024/01/08 18:03:04;;;;;;;11.43;10.67;;;;;;;;;;2612012;54;20441;-76
2024/01/08 18:08:33;;;;;;;12.97;11.90;;;;;;;;;;2613115;54;20370;-77
2024/01/08 18:14:03;;;;;;;11.63;10.73;;;;;;;;;;2613707;54;20398;-76
2024/01/08 18:19:33;;;;;;;11.93;11.03;;;;;;;;;;2612626;54;20366;-78
2024/01/08 18:25:02;;;;;;;11.97;11.10;;;;;;;;;;2613091;54;20383;-79
2024/01/08 18:30:32;;;;;;;13.20;12.00;;;;;;;;;;2613735;39;20829;-80
2024/01/08 18:36:03;;;;;;;15.17;13.60;;;;;;;;;;2613490;54;20427;-78
2024/01/08 18:41:32;;;;;;;13.13;11.90;;;;;;;;;;2612624;54;20770;-78
2024/01/08 18:47:02;;;;;;;11.33;10.53;;;;;;;;;;2612253;54;20553;-79
2024/01/08 18:52:31;;;;;;;11.53;10.53;;;;;;;;;;2613879;54;20494;-78
2024/01/08 18:58:02;;;;;;;12.43;11.27;;;;;;;;;;2612637;54;20402;-78
2024/01/08 19:03:32;;;;;;;12.27;11.30;;;;;;;;;;2612825;39;21006;-79
2024/01/08 19:09:05;;;;;;;12.60;11.63;;;;;;;;;;2613341;54;20391;-78
2024/01/08 19:14:35;;;;;;;11.50;10.40;;;;;;;;;;2613420;39;20752;-79
2024/01/08 19:20:05;;;;;;;11.47;10.57;;;;;;;;;;2611678;54;20338;-78
2024/01/08 19:25:34;;;;;;;11.47;10.77;;;;;;;;;;2612417;54;20381;-76
2024/01/08 19:31:04;;;;;;;12.90;12.07;;;;;;;;;;2613071;54;20416;-75
2024/01/08 19:36:34;;;;;;;11.43;10.33;;;;;;;;;;2613552;54;20948;-76
2024/01/08 19:42:04;;;;;;;11.93;10.80;;;;;;;;;;2613065;54;20403;-76
2024/01/08 19:51:08;;;;;;;11.57;10.47;;;;;;;;;;2613365;54;20397;-76
2024/01/08 19:56:37;;;;;;;11.50;10.50;;;;;;;;;;2612773;54;20400;-76
2024/01/08 20:02:07;;;;;;;12.90;11.83;;;;;;;;;;2613311;54;20424;-75
2024/01/08 20:07:37;;;;;;;10.70;9.90;;;;;;;;;;2612801;54;20354;-79
2024/01/08 20:13:08;;;;;;;12.33;11.40;;;;;;;;;;2612602;54;20463;-79
2024/01/08 20:18:38;;;;;;;11.17;10.13;;;;;;;;;;2613290;54;20412;-79
2024/01/08 20:24:08;;;;;;;12.13;11.13;;;;;;;;;;2613695;54;20393;-79
2024/01/08 20:29:37;;;;;;;9.77;9.07;;;;;;;;;;2612511;54;20342;-79
2024/01/08 20:35:08;;;;;;;10.87;10.17;;;;;;;;;;2613395;54;20370;-81
2024/01/08 20:40:38;;;;;;;10.43;9.60;;;;;;;;;;2613672;54;20345;-79
2024/01/08 20:46:07;;;;;;;12.17;11.27;;;;;;;;;;2614731;54;21034;-80
2024/01/08 20:51:37;;;;;;;12.10;11.10;;;;;;;;;;2614861;54;20450;-79
2024/01/08 20:57:07;;;;;;;9.70;9.00;;;;;;;;;;2614869;54;20937;-76
2024/01/08 21:02:36;;;;;;;12.00;10.83;;;;;;;;;;2615102;54;20396;-76
2024/01/08 21:08:07;;;;;;;11.30;10.40;;;;;;;;;;2614624;54;20381;-77
2024/01/08 21:13:36;;;;;;;10.43;9.73;;;;;;;;;;2614153;54;20395;-76
2024/01/08 21:19:07;;;;;;;11.10;10.20;;;;;;;;;;2615264;54;20378;-76
2024/01/08 21:24:37;;;;;;;11.03;10.17;;;;;;;;;;2616274;54;20410;-80
2024/01/08 21:30:09;;;;;;;10.43;9.60;;;;;;;;;;2618107;54;20406;-81
2024/01/08 21:35:38;;;;;;;12.40;11.20;;;;;;;;;;2615462;54;20375;-79
2024/01/08 21:41:09;;;;;;;12.50;11.20;;;;;;;;;;2616317;54;20378;-78
2024/01/08 21:46:39;;;;;;;12.93;11.73;;;;;;;;;;2614209;54;20758;-75
2024/01/08 21:55:44;;;;;;;11.53;10.73;;;;;;;;;;2615086;54;20420;-79
2024/01/08 22:01:13;;;;;;;10.60;9.70;;;;;;;;;;2616081;54;20932;-78
2024/01/08 22:06:43;;;;;;;11.17;10.27;;;;;;;;;;2614922;54;20975;-77
2024/01/08 22:12:13;;;;;;;9.77;9.07;;;;;;;;;;2614906;54;21038;-79
2024/01/08 22:17:43;;;;;;;10.83;9.80;;;;;;;;;;2615085;54;20402;-79
2024/01/08 22:23:12;;;;;;;11.60;10.43;;;;;;;;;;2615935;54;20390;-78
2024/01/08 22:28:42;;;;;;;10.60;9.90;;;;;;;;;;2614874;54;20386;-78
2024/01/08 22:34:12;;;;;;;12.73;11.43;;;;;;;;;;2615545;39;20743;-79
2024/01/08 22:39:42;;;;;;;11.60;10.70;;;;;;;;;;2615071;54;20359;-79
2024/01/08 22:45:12;;;;;;;12.10;11.03;;;;;;;;;;2614640;54;20399;-78
2024/01/08 22:50:41;;;;;;;11.40;10.63;;;;;;;;;;2614935;54;20436;-78
2024/01/08 22:56:11;;;;;;;12.60;10.20;;;;;;;;;;2615758;54;20379;-80
2024/01/08 23:01:49;;;;;;;11.73;10.70;;;;;;;;;;2615180;54;20508;-79
2024/01/08 23:07:18;;;;;;;9.37;8.63;;;;;;;;;;2615595;54;20377;-75
2024/01/08 23:12:48;;;;;;;11.20;10.27;;;;;;;;;;2615253;54;20370;-76
2024/01/08 23:18:19;;;;;;;11.40;10.60;;;;;;;;;;2614413;54;20415;-76
2024/01/08 23:23:48;;;;;;;12.20;11.17;;;;;;;;;;2614487;54;20379;-75
2024/01/08 23:29:18;;;;;;;11.80;11.00;;;;;;;;;;2614185;54;20377;-76
2024/01/08 23:34:49;;;;;;;10.73;9.83;;;;;;;;;;2615793;31;20945;-76
2024/01/08 23:37:33;;;;;;;10.57;9.87;;;;;;;;;;2614152;54;20427;-76
2024/01/08 23:39:59;;;;;;;12.00;10.80;;;;;;;;;;2613157;47;20462;-76
2024/01/08 23:45:29;;;;;;;13.07;11.97;;;;;;;;;;2614227;54;20495;-75
2024/01/08 23:50:59;;;;;;;10.73;9.80;;;;;;;;;;2614938;54;20406;-75
2024/01/08 23:56:28;;;;;;;13.07;10.20;;;;;;;;;;2617073;54;20936;-79
